sensor_id;sensor_type;location;lat;lon;timestamp;P1;durP1;ratioP1;P2;durP2;ratioP2
4424;SDS011;2225;53.568;13.266;2023-06-14T00:00:54;20.47;;;8.60;;
4424;SDS011;2225;53.568;13.266;2023-06-14T00:03:22;17.10;;;6.70;;
4424;SDS011;2225;53.568;13.266;2023-06-14T00:05:51;18.07;;;6.57;;
4424;SDS011;2225;53.568;13.266;2023-06-14T00:08:18;16.30;;;6.67;;
4424;SDS011;2225;53.568;13.266;2023-06-14T00:10:47;25.53;;;6.87;;
4424;SDS011;2225;53.568;13.266;2023-06-14T00:13:14;17.87;;;6.50;;
4424;SDS011;2225;53.568;13.266;2023-06-14T00:15:41;12.20;;;6.17;;
4424;SDS011;2225;53.568;13.266;2023-06-14T00:18:09;15.23;;;5.40;;
4424;SDS011;2225;53.568;13.266;2023-06-14T00:20:37;14.80;;;5.80;;
4424;SDS011;2225;53.568;13.266;2023-06-14T00:23:05;14.03;;;5.53;;
4424;SDS011;2225;53.568;13.266;2023-06-14T00:25:32;26.57;;;6.83;;
4424;SDS011;2225;53.568;13.266;2023-06-14T00:27:59;15.93;;;6.17;;
4424;SDS011;2225;53.568;13.266;2023-06-14T00:30:27;14.03;;;6.30;;
4424;SDS011;2225;53.568;13.266;2023-06-14T00:32:57;14.20;;;6.60;;
4424;SDS011;2225;53.568;13.266;2023-06-14T00:35:24;19.80;;;6.30;;
4424;SDS011;2225;53.568;13.266;2023-06-14T00:37:51;17.60;;;7.23;;
4424;SDS011;2225;53.568;13.266;2023-06-14T00:40:21;17.20;;;6.47;;
4424;SDS011;2225;53.568;13.266;2023-06-14T00:42:48;19.70;;;7.10;;
4424;SDS011;2225;53.568;13.266;2023-06-14T00:45:15;15.33;;;6.90;;
4424;SDS011;2225;53.568;13.266;2023-06-14T00:47:43;16.00;;;7.23;;
4424;SDS011;2225;53.568;13.266;2023-06-14T00:50:12;22.53;;;7.70;;
4424;SDS011;2225;53.568;13.266;2023-06-14T00:52:39;27.70;;;7.70;;
4424;SDS011;2225;53.568;13.266;2023-06-14T00:55:06;19.37;;;7.50;;
4424;SDS011;2225;53.568;13.266;2023-06-14T00:57:34;15.90;;;7.10;;
4424;SDS011;2225;53.568;13.266;2023-06-14T01:00:04;13.60;;;6.90;;
4424;SDS011;2225;53.568;13.266;2023-06-14T01:02:36;21.63;;;7.63;;
4424;SDS011;2225;53.568;13.266;2023-06-14T01:05:04;24.77;;;6.50;;
4424;SDS011;2225;53.568;13.266;2023-06-14T01:07:35;20.23;;;8.23;;
4424;SDS011;2225;53.568;13.266;2023-06-14T01:10:52;14.33;;;7.37;;
4424;SDS011;2225;53.568;13.266;2023-06-14T01:16:00;15.23;;;7.50;;
4424;SDS011;2225;53.568;13.266;2023-06-14T01:18:29;14.67;;;6.40;;
4424;SDS011;2225;53.568;13.266;2023-06-14T01:20:56;14.07;;;6.63;;
4424;SDS011;2225;53.568;13.266;2023-06-14T01:23:24;15.90;;;6.50;;
4424;SDS011;2225;53.568;13.266;2023-06-14T01:25:51;17.07;;;6.83;;
4424;SDS011;2225;53.568;13.266;2023-06-14T01:28:21;15.93;;;6.47;;
4424;SDS011;2225;53.568;13.266;2023-06-14T01:30:49;15.27;;;6.40;;
4424;SDS011;2225;53.568;13.266;2023-06-14T01:33:21;23.63;;;6.37;;
4424;SDS011;2225;53.568;13.266;2023-06-14T01:35:50;17.73;;;6.20;;
4424;SDS011;2225;53.568;13.266;2023-06-14T01:38:19;17.47;;;6.80;;
4424;SDS011;2225;53.568;13.266;2023-06-14T01:40:57;16.90;;;6.30;;
4424;SDS011;2225;53.568;13.266;2023-06-14T01:43:25;16.93;;;7.17;;
4424;SDS011;2225;53.568;13.266;2023-06-14T01:45:54;16.57;;;7.13;;
4424;SDS011;2225;53.568;13.266;2023-06-14T01:48:23;13.37;;;6.60;;
4424;SDS011;2225;53.568;13.266;2023-06-14T01:50:50;15.83;;;6.80;;
4424;SDS011;2225;53.568;13.266;2023-06-14T01:53:19;15.50;;;7.47;;
4424;SDS011;2225;53.568;13.266;2023-06-14T01:55:46;15.00;;;6.77;;
4424;SDS011;2225;53.568;13.266;2023-06-14T01:58:15;14.40;;;7.00;;
4424;SDS011;2225;53.568;13.266;2023-06-14T02:00:43;23.17;;;7.13;;
4424;SDS011;2225;53.568;13.266;2023-06-14T02:03:10;17.63;;;7.60;;
4424;SDS011;2225;53.568;13.266;2023-06-14T02:05:38;19.83;;;7.60;;
4424;SDS011;2225;53.568;13.266;2023-06-14T02:08:06;13.70;;;7.30;;
4424;SDS011;2225;53.568;13.266;2023-06-14T02:10:33;17.50;;;7.90;;
4424;SDS011;2225;53.568;13.266;2023-06-14T02:13:02;15.43;;;7.40;;
4424;SDS011;2225;53.568;13.266;2023-06-14T02:15:29;18.00;;;8.57;;
4424;SDS011;2225;53.568;13.266;2023-06-14T02:18:03;16.80;;;7.50;;
4424;SDS011;2225;53.568;13.266;2023-06-14T02:20:32;17.93;;;7.70;;
4424;SDS011;2225;53.568;13.266;2023-06-14T02:22:59;20.63;;;6.90;;
4424;SDS011;2225;53.568;13.266;2023-06-14T02:25:28;17.00;;;7.20;;
4424;SDS011;2225;53.568;13.266;2023-06-14T02:27:55;14.97;;;7.00;;
4424;SDS011;2225;53.568;13.266;2023-06-14T02:30:22;17.00;;;7.37;;
4424;SDS011;2225;53.568;13.266;2023-06-14T02:32:49;17.20;;;7.00;;
4424;SDS011;2225;53.568;13.266;2023-06-14T02:35:17;13.77;;;6.53;;
4424;SDS011;2225;53.568;13.266;2023-06-14T02:37:44;15.03;;;7.87;;
4424;SDS011;2225;53.568;13.266;2023-06-14T02:40:11;23.20;;;7.13;;
4424;SDS011;2225;53.568;13.266;2023-06-14T02:42:39;12.90;;;6.40;;
4424;SDS011;2225;53.568;13.266;2023-06-14T02:45:06;23.27;;;8.00;;
4424;SDS011;2225;53.568;13.266;2023-06-14T02:47:34;15.00;;;7.60;;
4424;SDS011;2225;53.568;13.266;2023-06-14T02:50:02;14.10;;;6.73;;
4424;SDS011;2225;53.568;13.266;2023-06-14T02:52:29;23.30;;;8.80;;
4424;SDS011;2225;53.568;13.266;2023-06-14T02:54:56;17.53;;;7.97;;
4424;SDS011;2225;53.568;13.266;2023-06-14T02:57:23;15.07;;;7.83;;
4424;SDS011;2225;53.568;13.266;2023-06-14T02:59:50;14.77;;;8.00;;
4424;SDS011;2225;53.568;13.266;2023-06-14T03:02:18;15.47;;;7.93;;
4424;SDS011;2225;53.568;13.266;2023-06-14T03:04:45;19.00;;;8.50;;
4424;SDS011;2225;53.568;13.266;2023-06-14T03:07:15;19.57;;;7.57;;
4424;SDS011;2225;53.568;13.266;2023-06-14T03:09:48;27.27;;;7.80;;
4424;SDS011;2225;53.568;13.266;2023-06-14T03:12:16;16.00;;;7.77;;
4424;SDS011;2225;53.568;13.266;2023-06-14T03:14:43;16.00;;;7.50;;
4424;SDS011;2225;53.568;13.266;2023-06-14T03:17:13;21.80;;;8.70;;
4424;SDS011;2225;53.568;13.266;2023-06-14T03:19:41;15.30;;;7.97;;
4424;SDS011;2225;53.568;13.266;2023-06-14T03:22:08;19.53;;;7.23;;
4424;SDS011;2225;53.568;13.266;2023-06-14T03:24:39;15.23;;;7.90;;
4424;SDS011;2225;53.568;13.266;2023-06-14T03:27:10;21.40;;;8.43;;
4424;SDS011;2225;53.568;13.266;2023-06-14T03:29:41;15.10;;;8.00;;
4424;SDS011;2225;53.568;13.266;2023-06-14T03:32:09;17.57;;;7.00;;
4424;SDS011;2225;53.568;13.266;2023-06-14T03:34:38;19.73;;;7.93;;
4424;SDS011;2225;53.568;13.266;2023-06-14T03:37:08;16.53;;;8.20;;
4424;SDS011;2225;53.568;13.266;2023-06-14T03:39:35;16.20;;;6.97;;
4424;SDS011;2225;53.568;13.266;2023-06-14T03:42:02;14.90;;;6.90;;
4424;SDS011;2225;53.568;13.266;2023-06-14T03:44:31;19.20;;;7.50;;
4424;SDS011;2225;53.568;13.266;2023-06-14T03:46:59;15.50;;;7.13;;
4424;SDS011;2225;53.568;13.266;2023-06-14T03:49:27;18.77;;;8.03;;
4424;SDS011;2225;53.568;13.266;2023-06-14T03:51:54;15.53;;;8.60;;
4424;SDS011;2225;53.568;13.266;2023-06-14T03:54:23;17.77;;;8.20;;
4424;SDS011;2225;53.568;13.266;2023-06-14T03:56:54;16.07;;;7.60;;
4424;SDS011;2225;53.568;13.266;2023-06-14T03:59:23;16.13;;;7.90;;
4424;SDS011;2225;53.568;13.266;2023-06-14T04:01:50;17.33;;;8.10;;
4424;SDS011;2225;53.568;13.266;2023-06-14T04:04:17;16.40;;;6.90;;
4424;SDS011;2225;53.568;13.266;2023-06-14T04:06:45;14.10;;;7.60;;
4424;SDS011;2225;53.568;13.266;2023-06-14T04:09:14;24.37;;;8.70;;
4424;SDS011;2225;53.568;13.266;2023-06-14T04:11:41;22.53;;;8.40;;
4424;SDS011;2225;53.568;13.266;2023-06-14T04:14:08;16.13;;;8.60;;
4424;SDS011;2225;53.568;13.266;2023-06-14T04:16:35;16.87;;;8.70;;
4424;SDS011;2225;53.568;13.266;2023-06-14T04:19:02;16.93;;;8.30;;
4424;SDS011;2225;53.568;13.266;2023-06-14T04:21:29;14.63;;;7.23;;
4424;SDS011;2225;53.568;13.266;2023-06-14T04:23:58;17.10;;;8.00;;
4424;SDS011;2225;53.568;13.266;2023-06-14T04:26:29;24.03;;;8.53;;
4424;SDS011;2225;53.568;13.266;2023-06-14T04:29:00;19.00;;;7.70;;
4424;SDS011;2225;53.568;13.266;2023-06-14T04:31:31;16.70;;;6.70;;
4424;SDS011;2225;53.568;13.266;2023-06-14T04:34:05;17.87;;;6.80;;
4424;SDS011;2225;53.568;13.266;2023-06-14T04:36:34;18.37;;;7.47;;
4424;SDS011;2225;53.568;13.266;2023-06-14T04:39:04;17.53;;;6.87;;
4424;SDS011;2225;53.568;13.266;2023-06-14T04:41:31;15.93;;;7.80;;
4424;SDS011;2225;53.568;13.266;2023-06-14T04:43:59;19.47;;;6.67;;
4424;SDS011;2225;53.568;13.266;2023-06-14T04:46:36;14.33;;;6.03;;
4424;SDS011;2225;53.568;13.266;2023-06-14T04:49:16;15.27;;;7.60;;
4424;SDS011;2225;53.568;13.266;2023-06-14T04:51:44;12.97;;;6.03;;
4424;SDS011;2225;53.568;13.266;2023-06-14T04:54:13;17.00;;;6.60;;
4424;SDS011;2225;53.568;13.266;2023-06-14T04:56:41;16.73;;;7.60;;
4424;SDS011;2225;53.568;13.266;2023-06-14T04:59:10;17.00;;;6.23;;
4424;SDS011;2225;53.568;13.266;2023-06-14T05:01:38;15.63;;;6.77;;
4424;SDS011;2225;53.568;13.266;2023-06-14T05:04:05;21.07;;;6.13;;
4424;SDS011;2225;53.568;13.266;2023-06-14T05:06:32;18.70;;;7.03;;
4424;SDS011;2225;53.568;13.266;2023-06-14T05:08:59;17.07;;;6.80;;
4424;SDS011;2225;53.568;13.266;2023-06-14T05:11:27;14.60;;;6.30;;
4424;SDS011;2225;53.568;13.266;2023-06-14T05:13:54;18.07;;;7.73;;
4424;SDS011;2225;53.568;13.266;2023-06-14T05:16:22;13.97;;;6.63;;
4424;SDS011;2225;53.568;13.266;2023-06-14T05:18:49;18.27;;;6.53;;
4424;SDS011;2225;53.568;13.266;2023-06-14T05:21:17;15.07;;;6.80;;
4424;SDS011;2225;53.568;13.266;2023-06-14T05:23:44;16.53;;;7.27;;
4424;SDS011;2225;53.568;13.266;2023-06-14T05:26:12;17.60;;;7.00;;
4424;SDS011;2225;53.568;13.266;2023-06-14T05:28:39;21.90;;;7.57;;
4424;SDS011;2225;53.568;13.266;2023-06-14T05:31:06;17.33;;;7.70;;
4424;SDS011;2225;53.568;13.266;2023-06-14T05:33:33;19.83;;;7.83;;
4424;SDS011;2225;53.568;13.266;2023-06-14T05:36:00;20.20;;;8.13;;
4424;SDS011;2225;53.568;13.266;2023-06-14T05:38:27;16.30;;;6.43;;
4424;SDS011;2225;53.568;13.266;2023-06-14T05:40:54;16.37;;;7.23;;
4424;SDS011;2225;53.568;13.266;2023-06-14T05:43:21;14.63;;;6.53;;
4424;SDS011;2225;53.568;13.266;2023-06-14T05:45:48;15.50;;;6.60;;
4424;SDS011;2225;53.568;13.266;2023-06-14T05:48:15;17.13;;;7.00;;
4424;SDS011;2225;53.568;13.266;2023-06-14T05:50:41;19.73;;;7.87;;
4424;SDS011;2225;53.568;13.266;2023-06-14T05:53:08;17.97;;;7.20;;
4424;SDS011;2225;53.568;13.266;2023-06-14T05:55:36;19.57;;;7.83;;
4424;SDS011;2225;53.568;13.266;2023-06-14T05:58:04;22.27;;;7.03;;
4424;SDS011;2225;53.568;13.266;2023-06-14T06:00:31;19.60;;;7.17;;
4424;SDS011;2225;53.568;13.266;2023-06-14T06:02:58;15.83;;;7.27;;
4424;SDS011;2225;53.568;13.266;2023-06-14T06:05:27;23.87;;;7.13;;
4424;SDS011;2225;53.568;13.266;2023-06-14T06:07:54;32.93;;;7.37;;
4424;SDS011;2225;53.568;13.266;2023-06-14T06:10:21;16.03;;;7.10;;
4424;SDS011;2225;53.568;13.266;2023-06-14T06:12:48;21.03;;;7.90;;
4424;SDS011;2225;53.568;13.266;2023-06-14T06:15:15;19.80;;;7.13;;
4424;SDS011;2225;53.568;13.266;2023-06-14T06:17:43;17.60;;;7.50;;
4424;SDS011;2225;53.568;13.266;2023-06-14T06:20:22;24.37;;;8.87;;
4424;SDS011;2225;53.568;13.266;2023-06-14T06:22:56;18.30;;;6.90;;
4424;SDS011;2225;53.568;13.266;2023-06-14T06:25:26;14.43;;;6.53;;
4424;SDS011;2225;53.568;13.266;2023-06-14T06:27:54;15.10;;;5.73;;
4424;SDS011;2225;53.568;13.266;2023-06-14T06:30:24;17.47;;;6.50;;
4424;SDS011;2225;53.568;13.266;2023-06-14T06:32:52;14.97;;;6.33;;
4424;SDS011;2225;53.568;13.266;2023-06-14T06:35:19;14.33;;;5.10;;
4424;SDS011;2225;53.568;13.266;2023-06-14T06:37:46;14.80;;;5.97;;
4424;SDS011;2225;53.568;13.266;2023-06-14T06:40:13;13.17;;;5.47;;
4424;SDS011;2225;53.568;13.266;2023-06-14T06:42:40;19.23;;;5.20;;
4424;SDS011;2225;53.568;13.266;2023-06-14T06:45:11;16.03;;;4.80;;
4424;SDS011;2225;53.568;13.266;2023-06-14T06:47:38;15.07;;;4.77;;
4424;SDS011;2225;53.568;13.266;2023-06-14T06:50:05;32.17;;;4.57;;
4424;SDS011;2225;53.568;13.266;2023-06-14T06:52:33;12.87;;;4.70;;
4424;SDS011;2225;53.568;13.266;2023-06-14T06:55:01;9.73;;;4.20;;
4424;SDS011;2225;53.568;13.266;2023-06-14T06:57:28;15.63;;;4.30;;
4424;SDS011;2225;53.568;13.266;2023-06-14T06:59:55;12.90;;;5.30;;
4424;SDS011;2225;53.568;13.266;2023-06-14T07:02:23;15.80;;;4.20;;
4424;SDS011;2225;53.568;13.266;2023-06-14T07:04:50;12.93;;;4.43;;
4424;SDS011;2225;53.568;13.266;2023-06-14T07:07:17;27.87;;;4.67;;
4424;SDS011;2225;53.568;13.266;2023-06-14T07:09:44;12.90;;;4.63;;
4424;SDS011;2225;53.568;13.266;2023-06-14T07:12:12;13.77;;;4.17;;
4424;SDS011;2225;53.568;13.266;2023-06-14T07:14:39;11.47;;;4.07;;
4424;SDS011;2225;53.568;13.266;2023-06-14T07:17:06;9.80;;;4.23;;
4424;SDS011;2225;53.568;13.266;2023-06-14T07:19:34;9.47;;;4.10;;
4424;SDS011;2225;53.568;13.266;2023-06-14T07:22:01;11.70;;;4.23;;
4424;SDS011;2225;53.568;13.266;2023-06-14T07:24:28;10.30;;;3.77;;
4424;SDS011;2225;53.568;13.266;2023-06-14T07:26:55;9.43;;;4.10;;
4424;SDS011;2225;53.568;13.266;2023-06-14T07:29:22;13.13;;;4.30;;
4424;SDS011;2225;53.568;13.266;2023-06-14T07:31:49;11.37;;;4.20;;
4424;SDS011;2225;53.568;13.266;2023-06-14T07:34:16;11.90;;;4.30;;
4424;SDS011;2225;53.568;13.266;2023-06-14T07:36:43;12.50;;;5.27;;
4424;SDS011;2225;53.568;13.266;2023-06-14T07:39:11;15.63;;;4.70;;
4424;SDS011;2225;53.568;13.266;2023-06-14T07:41:38;14.50;;;4.70;;
4424;SDS011;2225;53.568;13.266;2023-06-14T07:44:05;17.00;;;4.40;;
4424;SDS011;2225;53.568;13.266;2023-06-14T07:46:32;13.47;;;4.80;;
4424;SDS011;2225;53.568;13.266;2023-06-14T07:49:00;15.07;;;4.80;;
4424;SDS011;2225;53.568;13.266;2023-06-14T07:51:27;20.27;;;4.73;;
4424;SDS011;2225;53.568;13.266;2023-06-14T07:53:55;14.97;;;4.67;;
4424;SDS011;2225;53.568;13.266;2023-06-14T07:56:22;10.43;;;4.20;;
4424;SDS011;2225;53.568;13.266;2023-06-14T07:58:49;12.50;;;3.80;;
4424;SDS011;2225;53.568;13.266;2023-06-14T08:01:16;16.67;;;4.30;;
4424;SDS011;2225;53.568;13.266;2023-06-14T08:03:43;12.23;;;3.73;;
4424;SDS011;2225;53.568;13.266;2023-06-14T08:06:11;11.80;;;4.03;;
4424;SDS011;2225;53.568;13.266;2023-06-14T08:08:38;15.60;;;3.90;;
4424;SDS011;2225;53.568;13.266;2023-06-14T08:11:05;12.13;;;3.90;;
4424;SDS011;2225;53.568;13.266;2023-06-14T08:13:32;10.27;;;3.73;;
4424;SDS011;2225;53.568;13.266;2023-06-14T08:15:59;9.67;;;4.23;;
4424;SDS011;2225;53.568;13.266;2023-06-14T08:18:27;13.83;;;3.60;;
4424;SDS011;2225;53.568;13.266;2023-06-14T08:20:55;16.33;;;4.30;;
4424;SDS011;2225;53.568;13.266;2023-06-14T08:23:23;12.90;;;4.03;;
4424;SDS011;2225;53.568;13.266;2023-06-14T08:25:51;16.13;;;3.73;;
4424;SDS011;2225;53.568;13.266;2023-06-14T08:28:18;7.20;;;3.13;;
4424;SDS011;2225;53.568;13.266;2023-06-14T08:30:45;9.50;;;3.70;;
4424;SDS011;2225;53.568;13.266;2023-06-14T08:33:12;13.27;;;3.57;;
4424;SDS011;2225;53.568;13.266;2023-06-14T08:35:42;18.40;;;4.27;;
4424;SDS011;2225;53.568;13.266;2023-06-14T08:38:10;11.33;;;3.90;;
4424;SDS011;2225;53.568;13.266;2023-06-14T08:40:38;16.23;;;3.87;;
4424;SDS011;2225;53.568;13.266;2023-06-14T08:43:08;7.37;;;3.30;;
4424;SDS011;2225;53.568;13.266;2023-06-14T08:45:35;14.40;;;3.60;;
4424;SDS011;2225;53.568;13.266;2023-06-14T08:48:02;9.40;;;4.03;;
4424;SDS011;2225;53.568;13.266;2023-06-14T08:50:32;14.60;;;3.40;;
4424;SDS011;2225;53.568;13.266;2023-06-14T08:53:01;11.60;;;3.70;;
4424;SDS011;2225;53.568;13.266;2023-06-14T08:55:30;9.10;;;3.73;;
4424;SDS011;2225;53.568;13.266;2023-06-14T08:58:02;12.13;;;3.90;;
4424;SDS011;2225;53.568;13.266;2023-06-14T09:00:30;9.50;;;3.77;;
4424;SDS011;2225;53.568;13.266;2023-06-14T09:02:59;9.23;;;3.20;;
4424;SDS011;2225;53.568;13.266;2023-06-14T09:05:26;9.10;;;3.67;;
4424;SDS011;2225;53.568;13.266;2023-06-14T09:07:55;14.73;;;3.30;;
4424;SDS011;2225;53.568;13.266;2023-06-14T09:10:23;11.00;;;3.10;;
4424;SDS011;2225;53.568;13.266;2023-06-14T09:12:53;10.03;;;3.50;;
4424;SDS011;2225;53.568;13.266;2023-06-14T09:15:20;10.93;;;3.10;;
4424;SDS011;2225;53.568;13.266;2023-06-14T09:17:47;25.93;;;4.17;;
4424;SDS011;2225;53.568;13.266;2023-06-14T09:20:14;12.00;;;3.70;;
4424;SDS011;2225;53.568;13.266;2023-06-14T09:22:46;17.10;;;4.10;;
4424;SDS011;2225;53.568;13.266;2023-06-14T09:25:13;19.33;;;4.17;;
4424;SDS011;2225;53.568;13.266;2023-06-14T09:27:58;11.23;;;3.50;;
4424;SDS011;2225;53.568;13.266;2023-06-14T09:30:25;22.47;;;3.03;;
4424;SDS011;2225;53.568;13.266;2023-06-14T09:32:53;21.30;;;4.80;;
4424;SDS011;2225;53.568;13.266;2023-06-14T09:35:20;15.87;;;4.37;;
4424;SDS011;2225;53.568;13.266;2023-06-14T09:37:47;10.90;;;3.00;;
4424;SDS011;2225;53.568;13.266;2023-06-14T09:40:14;39.50;;;3.43;;
4424;SDS011;2225;53.568;13.266;2023-06-14T09:42:47;12.27;;;3.30;;
4424;SDS011;2225;53.568;13.266;2023-06-14T09:45:15;11.07;;;3.53;;
4424;SDS011;2225;53.568;13.266;2023-06-14T09:47:48;14.63;;;3.63;;
4424;SDS011;2225;53.568;13.266;2023-06-14T09:50:31;14.93;;;3.63;;
4424;SDS011;2225;53.568;13.266;2023-06-14T09:53:01;8.20;;;3.37;;
4424;SDS011;2225;53.568;13.266;2023-06-14T09:55:34;32.83;;;3.53;;
4424;SDS011;2225;53.568;13.266;2023-06-14T09:58:04;22.03;;;4.00;;
4424;SDS011;2225;53.568;13.266;2023-06-14T10:00:34;10.63;;;2.93;;
4424;SDS011;2225;53.568;13.266;2023-06-14T10:03:06;8.87;;;3.63;;
4424;SDS011;2225;53.568;13.266;2023-06-14T10:05:43;16.90;;;3.20;;
4424;SDS011;2225;53.568;13.266;2023-06-14T10:08:18;13.90;;;3.43;;
4424;SDS011;2225;53.568;13.266;2023-06-14T10:10:46;8.83;;;3.50;;
4424;SDS011;2225;53.568;13.266;2023-06-14T10:13:14;8.30;;;3.30;;
4424;SDS011;2225;53.568;13.266;2023-06-14T10:15:51;9.53;;;2.93;;
4424;SDS011;2225;53.568;13.266;2023-06-14T10:21:46;10.57;;;3.30;;
4424;SDS011;2225;53.568;13.266;2023-06-14T10:24:33;8.37;;;2.93;;
4424;SDS011;2225;53.568;13.266;2023-06-14T10:27:08;10.43;;;3.10;;
4424;SDS011;2225;53.568;13.266;2023-06-14T10:32:20;10.53;;;3.13;;
4424;SDS011;2225;53.568;13.266;2023-06-14T10:34:55;12.10;;;3.07;;
4424;SDS011;2225;53.568;13.266;2023-06-14T10:37:35;9.90;;;3.07;;
4424;SDS011;2225;53.568;13.266;2023-06-14T10:40:02;7.80;;;3.17;;
4424;SDS011;2225;53.568;13.266;2023-06-14T10:42:31;12.70;;;3.40;;
4424;SDS011;2225;53.568;13.266;2023-06-14T10:44:59;11.63;;;3.50;;
4424;SDS011;2225;53.568;13.266;2023-06-14T10:50:05;9.33;;;3.10;;
4424;SDS011;2225;53.568;13.266;2023-06-14T10:52:38;7.73;;;3.10;;
4424;SDS011;2225;53.568;13.266;2023-06-14T10:55:14;14.50;;;3.10;;
4424;SDS011;2225;53.568;13.266;2023-06-14T10:57:45;9.80;;;3.30;;
4424;SDS011;2225;53.568;13.266;2023-06-14T11:00:24;7.27;;;2.53;;
4424;SDS011;2225;53.568;13.266;2023-06-14T11:05:48;12.13;;;3.20;;
4424;SDS011;2225;53.568;13.266;2023-06-14T11:11:07;12.33;;;4.13;;
4424;SDS011;2225;53.568;13.266;2023-06-14T11:13:38;9.00;;;3.30;;
4424;SDS011;2225;53.568;13.266;2023-06-14T11:16:11;34.97;;;3.87;;
4424;SDS011;2225;53.568;13.266;2023-06-14T11:18:40;11.80;;;3.50;;
4424;SDS011;2225;53.568;13.266;2023-06-14T11:21:08;9.90;;;2.77;;
4424;SDS011;2225;53.568;13.266;2023-06-14T11:23:35;9.13;;;3.57;;
4424;SDS011;2225;53.568;13.266;2023-06-14T11:26:02;23.70;;;4.60;;
4424;SDS011;2225;53.568;13.266;2023-06-14T11:28:37;21.37;;;3.37;;
4424;SDS011;2225;53.568;13.266;2023-06-14T11:31:05;12.70;;;3.47;;
4424;SDS011;2225;53.568;13.266;2023-06-14T11:33:33;9.30;;;2.70;;
4424;SDS011;2225;53.568;13.266;2023-06-14T11:36:03;10.03;;;3.30;;
4424;SDS011;2225;53.568;13.266;2023-06-14T11:38:35;10.47;;;3.40;;
4424;SDS011;2225;53.568;13.266;2023-06-14T11:41:03;16.00;;;3.97;;
4424;SDS011;2225;53.568;13.266;2023-06-14T11:43:31;7.87;;;3.30;;
4424;SDS011;2225;53.568;13.266;2023-06-14T11:45:59;9.03;;;3.43;;
4424;SDS011;2225;53.568;13.266;2023-06-14T11:48:37;8.27;;;3.20;;
4424;SDS011;2225;53.568;13.266;2023-06-14T11:51:08;10.87;;;3.60;;
4424;SDS011;2225;53.568;13.266;2023-06-14T11:53:35;7.83;;;2.80;;
4424;SDS011;2225;53.568;13.266;2023-06-14T11:56:02;8.43;;;3.60;;
4424;SDS011;2225;53.568;13.266;2023-06-14T11:58:30;11.17;;;3.50;;
4424;SDS011;2225;53.568;13.266;2023-06-14T12:00:57;6.77;;;3.00;;
4424;SDS011;2225;53.568;13.266;2023-06-14T12:03:24;9.27;;;3.20;;
4424;SDS011;2225;53.568;13.266;2023-06-14T12:06:06;8.60;;;3.60;;
4424;SDS011;2225;53.568;13.266;2023-06-14T12:08:36;18.33;;;4.40;;
4424;SDS011;2225;53.568;13.266;2023-06-14T12:11:10;20.60;;;3.37;;
4424;SDS011;2225;53.568;13.266;2023-06-14T12:13:41;26.93;;;3.60;;
4424;SDS011;2225;53.568;13.266;2023-06-14T12:16:09;9.00;;;3.40;;
4424;SDS011;2225;53.568;13.266;2023-06-14T12:18:38;9.03;;;3.63;;
4424;SDS011;2225;53.568;13.266;2023-06-14T12:21:07;11.97;;;3.57;;
4424;SDS011;2225;53.568;13.266;2023-06-14T12:23:41;15.00;;;3.20;;
4424;SDS011;2225;53.568;13.266;2023-06-14T12:26:18;13.03;;;3.23;;
4424;SDS011;2225;53.568;13.266;2023-06-14T12:28:46;8.43;;;3.20;;
4424;SDS011;2225;53.568;13.266;2023-06-14T12:31:15;9.47;;;4.07;;
4424;SDS011;2225;53.568;13.266;2023-06-14T12:33:42;7.47;;;3.27;;
4424;SDS011;2225;53.568;13.266;2023-06-14T12:36:12;7.03;;;3.23;;
4424;SDS011;2225;53.568;13.266;2023-06-14T12:38:39;11.40;;;3.50;;
4424;SDS011;2225;53.568;13.266;2023-06-14T12:41:06;8.20;;;2.90;;
4424;SDS011;2225;53.568;13.266;2023-06-14T12:43:34;12.13;;;3.90;;
4424;SDS011;2225;53.568;13.266;2023-06-14T12:46:01;7.83;;;3.70;;
4424;SDS011;2225;53.568;13.266;2023-06-14T12:48:28;13.90;;;3.70;;
4424;SDS011;2225;53.568;13.266;2023-06-14T12:50:57;13.37;;;4.20;;
4424;SDS011;2225;53.568;13.266;2023-06-14T12:53:24;7.90;;;3.30;;
4424;SDS011;2225;53.568;13.266;2023-06-14T12:55:51;25.63;;;3.43;;
4424;SDS011;2225;53.568;13.266;2023-06-14T12:58:18;11.47;;;3.20;;
4424;SDS011;2225;53.568;13.266;2023-06-14T13:00:46;10.30;;;3.63;;
4424;SDS011;2225;53.568;13.266;2023-06-14T13:03:14;13.67;;;3.70;;
4424;SDS011;2225;53.568;13.266;2023-06-14T13:05:41;15.50;;;3.80;;
4424;SDS011;2225;53.568;13.266;2023-06-14T13:08:09;14.03;;;3.27;;
4424;SDS011;2225;53.568;13.266;2023-06-14T13:10:36;19.43;;;4.47;;
4424;SDS011;2225;53.568;13.266;2023-06-14T13:13:03;12.67;;;3.00;;
4424;SDS011;2225;53.568;13.266;2023-06-14T13:15:30;14.70;;;3.03;;
4424;SDS011;2225;53.568;13.266;2023-06-14T13:17:57;11.93;;;4.47;;
4424;SDS011;2225;53.568;13.266;2023-06-14T13:20:24;11.90;;;3.73;;
4424;SDS011;2225;53.568;13.266;2023-06-14T13:22:51;12.77;;;4.03;;
4424;SDS011;2225;53.568;13.266;2023-06-14T13:25:18;9.60;;;3.50;;
4424;SDS011;2225;53.568;13.266;2023-06-14T13:27:45;14.93;;;2.93;;
4424;SDS011;2225;53.568;13.266;2023-06-14T13:30:12;8.43;;;3.00;;
4424;SDS011;2225;53.568;13.266;2023-06-14T13:32:40;12.37;;;2.97;;
4424;SDS011;2225;53.568;13.266;2023-06-14T13:35:07;8.23;;;3.10;;
4424;SDS011;2225;53.568;13.266;2023-06-14T13:37:34;9.80;;;3.60;;
4424;SDS011;2225;53.568;13.266;2023-06-14T13:40:01;16.53;;;3.17;;
4424;SDS011;2225;53.568;13.266;2023-06-14T13:42:28;10.20;;;3.67;;
4424;SDS011;2225;53.568;13.266;2023-06-14T13:44:58;8.60;;;3.70;;
4424;SDS011;2225;53.568;13.266;2023-06-14T13:47:25;18.00;;;3.40;;
4424;SDS011;2225;53.568;13.266;2023-06-14T13:49:52;11.03;;;3.40;;
4424;SDS011;2225;53.568;13.266;2023-06-14T13:52:19;25.13;;;3.93;;
4424;SDS011;2225;53.568;13.266;2023-06-14T13:54:46;11.80;;;3.70;;
4424;SDS011;2225;53.568;13.266;2023-06-14T13:57:15;17.83;;;4.23;;
4424;SDS011;2225;53.568;13.266;2023-06-14T13:59:42;11.97;;;3.70;;
4424;SDS011;2225;53.568;13.266;2023-06-14T14:02:10;7.77;;;3.40;;
4424;SDS011;2225;53.568;13.266;2023-06-14T14:04:38;7.50;;;3.50;;
4424;SDS011;2225;53.568;13.266;2023-06-14T14:07:06;9.83;;;3.33;;
4424;SDS011;2225;53.568;13.266;2023-06-14T14:09:33;10.60;;;3.50;;
4424;SDS011;2225;53.568;13.266;2023-06-14T14:12:01;31.23;;;4.30;;
4424;SDS011;2225;53.568;13.266;2023-06-14T14:14:30;8.00;;;3.10;;
4424;SDS011;2225;53.568;13.266;2023-06-14T14:16:58;8.83;;;3.57;;
4424;SDS011;2225;53.568;13.266;2023-06-14T14:19:25;12.77;;;4.03;;
4424;SDS011;2225;53.568;13.266;2023-06-14T14:21:52;14.60;;;4.20;;
4424;SDS011;2225;53.568;13.266;2023-06-14T14:24:20;11.47;;;3.43;;
4424;SDS011;2225;53.568;13.266;2023-06-14T14:26:47;9.70;;;3.60;;
4424;SDS011;2225;53.568;13.266;2023-06-14T14:29:16;8.00;;;3.20;;
4424;SDS011;2225;53.568;13.266;2023-06-14T14:31:43;8.50;;;3.20;;
4424;SDS011;2225;53.568;13.266;2023-06-14T14:34:10;17.07;;;3.70;;
4424;SDS011;2225;53.568;13.266;2023-06-14T14:36:37;7.03;;;3.10;;
4424;SDS011;2225;53.568;13.266;2023-06-14T14:39:08;15.17;;;3.87;;
4424;SDS011;2225;53.568;13.266;2023-06-14T14:41:35;8.53;;;3.50;;
4424;SDS011;2225;53.568;13.266;2023-06-14T14:44:07;9.93;;;3.90;;
4424;SDS011;2225;53.568;13.266;2023-06-14T14:46:34;14.47;;;3.67;;
4424;SDS011;2225;53.568;13.266;2023-06-14T14:49:01;10.30;;;3.10;;
4424;SDS011;2225;53.568;13.266;2023-06-14T14:51:29;9.83;;;3.70;;
4424;SDS011;2225;53.568;13.266;2023-06-14T14:53:56;10.83;;;3.90;;
4424;SDS011;2225;53.568;13.266;2023-06-14T14:56:23;8.90;;;3.87;;
4424;SDS011;2225;53.568;13.266;2023-06-14T14:58:50;14.93;;;4.20;;
4424;SDS011;2225;53.568;13.266;2023-06-14T15:01:17;13.87;;;4.90;;
4424;SDS011;2225;53.568;13.266;2023-06-14T15:03:44;8.90;;;3.27;;
4424;SDS011;2225;53.568;13.266;2023-06-14T15:06:14;11.00;;;3.60;;
4424;SDS011;2225;53.568;13.266;2023-06-14T15:08:41;11.17;;;3.40;;
4424;SDS011;2225;53.568;13.266;2023-06-14T15:11:08;6.77;;;3.50;;
4424;SDS011;2225;53.568;13.266;2023-06-14T15:13:35;8.43;;;3.73;;
4424;SDS011;2225;53.568;13.266;2023-06-14T15:16:02;8.97;;;4.10;;